Time;durP1;ratioP1;P1;durP2;ratioP2;P2;SDS_P1;SDS_P2;PMS_P1;PMS_P2;Temp;Humidity;BMP_temperature;BMP_pressure;BME280_temperature;BME280_humidity;BME280_pressure;Samples;Min_cycle;Max_cycle;Signal;HPM_P1;HPM_P2
2023/08/26 00:00:29;;;;;;;50.60;27.58;;;;;;;22.73;100.00;-18637.56;5005155;28;20046;-80
2023/08/26 00:02:55;;;;;;;47.55;27.70;;;;;;;22.94;100.00;-18643.00;5005434;28;20038;-80
2023/08/26 00:05:20;;;;;;;55.92;28.27;;;;;;;22.51;100.00;-18631.59;5008985;28;20606;-80
2023/08/26 00:07:46;;;;;;;50.60;25.70;;;;;;;22.66;100.00;-18635.66;5004087;28;20042;-80
2023/08/26 00:10:11;;;;;;;52.90;30.40;;;;;;;22.88;100.00;-18641.38;5005816;28;20392;-80
2023/08/26 00:12:36;;;;;;;47.38;24.48;;;;;;;22.73;100.00;-18637.56;5011228;28;20049;-80
2023/08/26 00:15:03;;;;;;;48.38;24.90;;;;;;;22.47;100.00;-18630.50;5004340;28;20211;-80
2023/08/26 00:17:28;;;;;;;45.47;24.40;;;;;;;22.61;100.00;-18634.31;5000941;28;20042;-80
2023/08/26 00:19:54;;;;;;;44.63;25.42;;;;;;;22.72;100.00;-18637.28;5009608;28;20081;-79
2023/08/26 00:22:20;;;;;;;44.20;21.38;;;;;;;22.41;100.00;-18629.00;5000751;28;20083;-79
2023/08/26 00:24:47;;;;;;;42.30;22.52;;;;;;;22.30;100.00;-18626.03;5001768;28;20093;-79
2023/08/26 00:27:12;;;;;;;41.15;21.10;;;;;;;22.47;100.00;-18630.50;5005245;28;20042;-79
2023/08/26 00:29:38;;;;;;;36.35;19.42;;;;;;;22.64;100.00;-18634.97;5005377;28;20055;-79
2023/08/26 00:32:04;;;;;;;39.13;22.40;;;;;;;22.69;100.00;-18636.47;5006316;28;20132;-79
2023/08/26 00:34:29;;;;;;;37.58;20.60;;;;;;;22.47;100.00;-18630.50;4997706;28;20580;-79
2023/08/26 00:36:54;;;;;;;36.75;20.33;;;;;;;22.12;100.00;-18621.25;5003589;28;20112;-80
2023/08/26 00:39:20;;;;;;;35.15;19.38;;;;;;;22.25;100.00;-18624.81;5009987;28;20076;-79
2023/08/26 00:41:46;;;;;;;36.08;22.38;;;;;;;22.36;100.00;-18627.53;5006314;28;20058;-79
2023/08/26 00:44:11;;;;;;;36.28;20.52;;;;;;;22.42;100.00;-18629.28;5002199;28;20073;-79
2023/08/26 00:46:37;;;;;;;36.75;20.77;;;;;;;22.56;100.00;-18632.81;5010605;28;20526;-80
2023/08/26 00:49:03;;;;;;;36.08;21.92;;;;;;;22.42;100.00;-18629.16;5004793;28;20045;-79
2023/08/26 00:51:29;;;;;;;35.30;19.90;;;;;;;22.12;100.00;-18621.13;5002312;28;20037;-80
2023/08/26 00:53:55;;;;;;;36.30;20.02;;;;;;;21.95;100.00;-18616.78;5001414;28;20102;-80
2023/08/26 00:56:22;;;;;;;36.60;20.63;;;;;;;22.07;100.00;-18620.03;4999265;28;20046;-80
2023/08/26 00:58:48;;;;;;;34.47;20.13;;;;;;;21.93;100.00;-18616.25;5002216;28;20583;-79
2023/08/26 01:01:14;;;;;;;36.13;20.85;;;;;;;21.89;100.00;-18615.00;5011279;28;20049;-80
2023/08/26 01:03:39;;;;;;;37.72;18.48;;;;;;;21.89;100.00;-18615.16;5005386;28;20130;-80
2023/08/26 01:06:05;;;;;;;36.92;21.15;;;;;;;22.08;100.00;-18620.31;5013209;28;20041;-80
2023/08/26 01:08:31;;;;;;;39.33;20.80;;;;;;;21.91;100.00;-18615.56;5016663;28;20540;-80
2023/08/26 01:11:03;;;;;;;39.95;22.35;;;;;;;21.97;100.00;-18617.19;5002777;28;20039;-80
2023/08/26 01:13:37;;;;;;;39.20;21.25;;;;;;;21.33;100.00;-18600.34;5000160;28;20049;-80
2023/08/26 01:16:03;;;;;;;39.83;21.35;;;;;;;21.63;100.00;-18608.22;5002920;28;20121;-79
2023/08/26 01:18:29;;;;;;;36.40;19.25;;;;;;;21.63;100.00;-18608.34;5021793;28;20084;-80
2023/08/26 01:20:55;;;;;;;44.10;23.30;;;;;;;;;;5020442;28;20476;-80
2023/08/26 01:23:38;;;;;;;39.50;21.05;;;;;;;21.84;100.00;-18613.78;5006856;28;20150;-80
2023/08/26 01:26:04;;;;;;;39.60;22.08;;;;;;;21.62;100.00;-18608.09;4974606;28;20068;-80
2023/08/26 01:28:30;;;;;;;40.80;22.65;;;;;;;21.77;100.00;-18612.03;5004577;28;20081;-80
2023/08/26 01:30:58;;;;;;;38.97;21.60;;;;;;;21.49;100.00;-18604.41;5000442;28;20481;-80
2023/08/26 01:33:31;;;;;;;38.20;20.23;;;;;;;21.50;100.00;-18604.81;5005673;28;20037;-80
2023/08/26 01:36:00;;;;;;;36.75;20.63;;;;;;;21.53;100.00;-18605.63;4999426;28;20118;-80
2023/08/26 01:38:27;;;;;;;37.53;21.60;;;;;;;21.76;100.00;-18611.75;5004329;28;20434;-79
2023/08/26 01:40:56;;;;;;;42.65;22.15;;;;;;;22.01;100.00;-18618.28;4999200;28;20042;-80
2023/08/26 01:43:23;;;;;;;40.37;22.63;;;;;;;21.80;100.00;-18612.84;5011434;28;20041;-80
2023/08/26 01:45:51;;;;;;;40.65;22.38;;;;;;;21.86;100.00;-18614.47;5016866;28;20637;-80
2023/08/26 01:48:16;;;;;;;42.65;23.88;;;;;;;21.61;100.00;-18607.69;5007329;28;20034;-79
2023/08/26 01:50:41;;;;;;;46.85;24.00;;;;;;;21.81;100.00;-18612.97;5004666;28;20033;-79
2023/08/26 01:53:08;;;;;;;48.90;26.30;;;;;;;21.49;100.00;-18604.41;5001477;28;20054;-80
2023/08/26 01:55:34;;;;;;;51.42;27.77;;;;;;;21.66;100.00;-18608.91;5002423;28;20038;-80
2023/08/26 01:57:59;;;;;;;48.42;27.40;;;;;;;21.59;100.00;-18607.28;5010624;28;20046;-80
2023/08/26 02:00:24;;;;;;;46.90;24.13;;;;;;;21.63;100.00;-18608.22;5003763;28;20041;-80
2023/08/26 02:02:50;;;;;;;55.00;27.85;;;;;;;21.56;100.00;-18606.31;5018992;28;20057;-80
2023/08/26 02:05:15;;;;;;;59.55;29.38;;;;;;;21.57;100.00;-18606.72;5006532;28;20038;-80
2023/08/26 02:07:42;;;;;;;59.80;30.65;;;;;;;21.35;100.00;-18600.88;5007153;28;20084;-80
2023/08/26 02:10:08;;;;;;;60.78;30.40;;;;;;;21.33;100.00;-18600.19;4997940;28;20045;-80
2023/08/26 02:12:33;;;;;;;63.80;30.05;;;;;;;21.17;100.00;-18595.97;5011836;28;20045;-79
2023/08/26 02:15:01;;;;;;;67.93;33.03;;;;;;;21.19;100.00;-18596.53;4999138;28;20069;-80
2023/08/26 02:17:26;;;;;;;63.85;33.22;;;;;;;21.26;100.00;-18598.28;5005720;28;20053;-80
2023/08/26 02:19:51;;;;;;;67.07;33.75;;;;;;;21.33;100.00;-18600.34;5005426;28;20398;-80
2023/08/26 02:22:17;;;;;;;71.93;35.95;;;;;;;21.28;100.00;-18598.84;5002025;28;20037;-80
2023/08/26 02:24:42;;;;;;;72.47;35.70;;;;;;;21.23;100.00;-18597.63;5006072;28;20050;-80
2023/08/26 02:27:07;;;;;;;70.80;36.03;;;;;;;21.32;100.00;-18600.06;5006963;28;20042;-80
2023/08/26 02:29:33;;;;;;;77.20;38.55;;;;;;;21.32;100.00;-18600.06;5005837;28;20053;-80
2023/08/26 02:31:58;;;;;;;72.28;38.38;;;;;;;21.51;100.00;-18605.09;5010987;28;20053;-80
2023/08/26 02:34:25;;;;;;;75.82;37.08;;;;;;;21.48;100.00;-18604.28;5011820;28;20045;-80
2023/08/26 02:36:51;;;;;;;83.28;39.13;;;;;;;21.59;100.00;-18607.13;5006052;28;20046;-80
2023/08/26 02:39:17;;;;;;;73.80;36.85;;;;;;;21.35;100.00;-18600.88;5008786;28;20065;-80
2023/08/26 02:41:42;;;;;;;78.53;37.90;;;;;;;21.47;100.00;-18603.88;5010991;28;20031;-80
2023/08/26 02:44:07;;;;;;;75.65;36.92;;;;;;;21.58;100.00;-18607.00;5018693;28;20389;-79
2023/08/26 02:46:33;;;;;;;80.43;37.00;;;;;;;21.45;100.00;-18603.31;5004697;28;20046;-79
2023/08/26 02:48:58;;;;;;;74.70;35.72;;;;;;;21.44;100.00;-18603.06;5027726;28;20094;-80
2023/08/26 02:51:23;;;;;;;80.10;35.85;;;;;;;21.48;100.00;-18604.16;5009456;28;20042;-80
2023/08/26 02:53:49;;;;;;;75.50;38.35;;;;;;;21.61;100.00;-18607.69;5009607;28;20454;-79
2023/08/26 02:56:14;;;;;;;70.65;32.50;;;;;;;21.30;100.00;-18599.38;5007211;28;20038;-80
2023/08/26 02:58:40;;;;;;;70.70;34.70;;;;;;;21.42;100.00;-18602.50;5006511;28;20081;-79
2023/08/26 03:01:06;;;;;;;62.65;30.33;;;;;;;21.14;100.00;-18595.16;5006917;28;20808;-79
2023/08/26 03:03:32;;;;;;;57.92;31.17;;;;;;;21.37;100.00;-18601.28;5007492;28;20251;-80
2023/08/26 03:05:57;;;;;;;45.53;24.85;;;;;;;20.98;100.00;-18590.81;5000872;28;20156;-79
2023/08/26 03:08:23;;;;;;;49.92;25.10;;;;;;;20.60;100.00;-18580.88;5007447;28;20046;-79
2023/08/26 03:11:00;;;;;;;49.78;27.15;;;;;;;20.72;100.00;-18584.16;5024076;28;20486;-79
2023/08/26 03:13:25;;;;;;;45.33;25.27;;;;;;;20.54;100.00;-18579.13;5008558;28;20053;-79
2023/08/26 03:15:50;;;;;;;36.08;22.02;;;;;;;20.46;100.00;-18577.22;5005329;28;20050;-80
2023/08/26 03:18:16;;;;;;;33.22;19.50;;;;;;;20.24;100.00;-18571.34;5008230;28;20037;-79
2023/08/26 03:20:41;;;;;;;40.60;19.23;;;;;;;20.15;100.00;-18568.91;5010678;28;20038;-79
2023/08/26 03:23:06;;;;;;;32.50;17.58;;;;;;;20.01;100.00;-18565.22;5005576;28;20050;-79
2023/08/26 03:25:37;;;;;;;35.78;20.67;;;;;;;20.16;100.00;-18569.03;5007010;28;20042;-79
2023/08/26 03:28:02;;;;;;;39.03;22.60;;;;;;;20.12;100.00;-18568.09;5004107;28;20041;-79
2023/08/26 03:30:28;;;;;;;38.47;23.35;;;;;;;20.11;100.00;-18567.69;5005615;28;20042;-79
2023/08/26 03:32:53;;;;;;;33.75;21.85;;;;;;;20.03;100.00;-18565.63;5010902;28;20045;-79
2023/08/26 03:35:18;;;;;;;34.72;19.65;;;;;;;19.91;100.00;-18562.50;5005241;28;20120;-79
2023/08/26 03:37:43;;;;;;;29.02;17.00;;;;;;;19.69;100.00;-18556.53;5005428;28;20449;-79
2023/08/26 03:40:09;;;;;;;28.75;17.55;;;;;;;19.31;100.00;-18546.44;5001626;28;20421;-80
2023/08/26 03:42:35;;;;;;;27.55;15.30;;;;;;;19.39;100.00;-18548.75;5006306;28;20042;-79
2023/08/26 03:45:00;;;;;;;25.15;14.60;;;;;;;19.49;100.00;-18551.19;5011968;28;20042;-79
2023/08/26 03:47:25;;;;;;;27.48;16.20;;;;;;;19.66;100.00;-18555.84;5010939;28;20346;-79
2023/08/26 03:49:51;;;;;;;24.13;13.50;;;;;;;20.69;100.00;-18583.19;5004942;28;20655;-79
2023/08/26 03:52:17;;;;;;;21.52;12.77;;;;;;;20.76;100.00;-18584.97;5007870;28;20042;-79
2023/08/26 03:54:42;;;;;;;30.70;13.73;;;;;;;18.89;100.00;-18535.25;4999863;28;20035;-79
2023/08/26 03:57:08;;;;;;;22.70;12.13;;;;;;;18.58;100.00;-18526.94;5010790;28;20045;-79
2023/08/26 03:59:33;;;;;;;21.15;12.95;;;;;;;18.62;100.00;-18528.03;4999193;28;20817;-79
2023/08/26 04:01:58;;;;;;;23.83;12.60;;;;;;;18.60;100.00;-18527.63;5006355;28;20061;-79
2023/08/26 04:04:24;;;;;;;23.70;12.57;;;;;;;18.47;100.00;-18524.22;4999567;28;20121;-79
2023/08/26 04:06:49;;;;;;;24.83;12.02;;;;;;;18.68;100.00;-18529.66;5005713;28;20042;-79
2023/08/26 04:09:14;;;;;;;18.90;10.60;;;;;;;18.55;100.00;-18526.13;5009796;28;20050;-79
2023/08/26 04:11:40;;;;;;;19.40;12.80;;;;;;;18.60;100.00;-18527.63;5007232;28;20062;-80
2023/08/26 04:14:06;;;;;;;17.58;10.07;;;;;;;18.53;100.00;-18525.56;5005696;28;20042;-79
2023/08/26 04:16:31;;;;;;;20.17;11.60;;;;;;;18.34;100.00;-18520.66;5012224;28;20042;-79
2023/08/26 04:18:57;;;;;;;22.48;11.80;;;;;;;18.27;100.00;-18518.91;5009629;28;20438;-79
2023/08/26 04:21:22;;;;;;;19.27;10.85;;;;;;;18.31;100.00;-18519.84;4998427;28;20040;-79
2023/08/26 04:23:48;;;;;;;21.15;12.85;;;;;;;18.38;100.00;-18521.63;5002425;28;20121;-79
2023/08/26 04:26:13;;;;;;;19.83;11.15;;;;;;;18.41;100.00;-18522.44;4998458;28;20103;-79
2023/08/26 04:28:39;;;;;;;17.30;10.90;;;;;;;18.32;100.00;-18520.13;5008872;28;20045;-79
2023/08/26 04:31:06;;;;;;;17.40;9.82;;;;;;;18.17;100.00;-18516.16;5004457;28;20384;-79
2023/08/26 04:33:31;;;;;;;13.48;9.27;;;;;;;18.14;100.00;-18515.22;5003427;28;20038;-79
2023/08/26 04:35:56;;;;;;;17.67;8.43;;;;;;;18.06;100.00;-18513.16;5008155;28;20484;-80
2023/08/26 04:38:22;;;;;;;16.92;8.32;;;;;;;18.06;100.00;-18513.16;5001792;28;20046;-80
2023/08/26 04:40:47;;;;;;;17.20;8.77;;;;;;;18.09;100.00;-18513.84;5011459;28;20049;-79
2023/08/26 04:43:12;;;;;;;15.10;8.05;;;;;;;18.12;100.00;-18514.81;5006180;28;20038;-79
2023/08/26 04:45:38;;;;;;;12.73;7.07;;;;;;;17.94;100.00;-18509.88;4999801;28;20050;-79
2023/08/26 04:48:05;;;;;;;14.05;6.72;;;;;;;18.02;100.00;-18512.22;5005599;28;20103;-79
2023/08/26 04:50:31;;;;;;;12.90;6.97;;;;;;;17.97;100.00;-18510.84;5001589;28;20474;-79
2023/08/26 04:52:57;;;;;;;10.10;6.85;;;;;;;18.02;100.00;-18512.06;5002700;28;20050;-79
2023/08/26 04:55:22;;;;;;;12.43;5.90;;;;;;;17.81;100.00;-18506.63;5001857;28;20045;-79
2023/08/26 04:57:48;;;;;;;10.60;6.30;;;;;;;17.94;100.00;-18509.88;5003479;28;20045;-79
2023/08/26 05:00:16;;;;;;;13.70;5.35;;;;;;;17.87;100.00;-18508.13;5005227;28;20033;-80
2023/08/26 05:02:42;;;;;;;9.07;5.57;;;;;;;17.58;100.00;-18500.34;5002832;28;20061;-80
2023/08/26 05:05:07;;;;;;;10.25;6.07;;;;;;;17.60;100.00;-18500.88;5004210;28;20317;-80
2023/08/26 05:07:33;;;;;;;9.30;5.25;;;;;;;17.63;100.00;-18501.69;5004794;28;20030;-80
2023/08/26 05:09:58;;;;;;;14.23;5.05;;;;;;;17.58;100.00;-18500.34;5017928;28;20077;-80
2023/08/26 05:12:24;;;;;;;8.73;4.88;;;;;;;17.73;100.00;-18504.44;5002982;28;20095;-80
2023/08/26 05:14:49;;;;;;;11.52;5.47;;;;;;;17.69;100.00;-18503.34;5003980;28;20038;-79
2023/08/26 05:17:14;;;;;;;9.30;5.15;;;;;;;17.53;100.00;-18499.09;5003169;28;20076;-79
2023/08/26 05:19:40;;;;;;;10.27;4.45;;;;;;;17.55;100.00;-18499.50;5001917;28;21059;-80
2023/08/26 05:22:05;;;;;;;7.85;4.57;;;;;;;17.42;100.00;-18495.97;5006429;28;20131;-80
2023/08/26 05:24:30;;;;;;;11.45;5.82;;;;;;;17.58;100.00;-18500.34;5005188;28;20042;-81
2023/08/26 05:26:57;;;;;;;12.82;5.97;;;;;;;17.54;100.00;-18499.25;5020178;28;20045;-80
2023/08/26 05:29:22;;;;;;;15.32;5.45;;;;;;;17.44;100.00;-18496.66;5010065;28;20042;-80
2023/08/26 05:31:48;;;;;;;8.40;4.60;;;;;;;17.17;100.00;-18489.41;5006408;28;20749;-80
2023/08/26 05:34:13;;;;;;;9.20;5.65;;;;;;;17.37;100.00;-18494.88;5007614;28;20026;-80
2023/08/26 05:36:39;;;;;;;8.95;4.70;;;;;;;17.44;100.00;-18496.50;5004938;28;20045;-80
2023/08/26 05:39:04;;;;;;;9.90;5.40;;;;;;;17.46;100.00;-18497.06;5002606;28;20073;-80
2023/08/26 05:41:29;;;;;;;11.55;5.35;;;;;;;17.43;100.00;-18496.25;5003358;28;20493;-80
2023/08/26 05:43:55;;;;;;;14.10;5.53;;;;;;;17.46;100.00;-18497.19;5004762;28;20057;-80
2023/08/26 05:46:20;;;;;;;11.02;5.55;;;;;;;17.55;100.00;-18499.66;5007911;28;20409;-80
2023/08/26 05:48:45;;;;;;;10.30;5.57;;;;;;;17.53;100.00;-18499.09;5005791;28;20037;-80
2023/08/26 05:51:11;;;;;;;9.95;5.43;;;;;;;17.45;100.00;-18496.78;5007326;28;20038;-80
2023/08/26 05:53:36;;;;;;;8.75;4.97;;;;;;;17.48;100.00;-18497.59;5005856;28;20060;-81
2023/08/26 05:56:01;;;;;;;9.48;5.05;;;;;;;17.40;100.00;-18495.56;5012127;28;20050;-81
2023/08/26 05:58:27;;;;;;;11.40;5.90;;;;;;;17.51;100.00;-18498.44;5014191;28;20092;-80
2023/08/26 06:00:52;;;;;;;12.60;5.10;;;;;;;17.52;100.00;-18498.69;5016014;28;20038;-81
2023/08/26 06:03:17;;;;;;;9.23;4.53;;;;;;;17.56;100.00;-18499.78;5013463;28;20029;-81
2023/08/26 06:05:43;;;;;;;9.82;4.38;;;;;;;17.48;100.00;-18497.59;5024864;28;20508;-80
2023/08/26 06:08:09;;;;;;;10.32;5.25;;;;;;;17.52;100.00;-18498.69;5012234;28;20038;-80
2023/08/26 06:10:34;;;;;;;8.98;4.93;;;;;;;17.38;100.00;-18495.00;5009877;28;20049;-80
2023/08/26 06:13:00;;;;;;;12.63;4.57;;;;;;;17.49;100.00;-18497.88;5013467;28;20441;-81
2023/08/26 06:15:25;;;;;;;7.97;3.95;;;;;;;17.57;100.00;-18500.19;5012921;28;20069;-81
2023/08/26 06:17:50;;;;;;;8.13;4.32;;;;;;;17.58;100.00;-18500.47;5012963;28;20029;-81
2023/08/26 06:20:16;;;;;;;6.35;4.22;;;;;;;17.45;100.00;-18496.91;5017369;28;20044;-81
2023/08/26 06:22:45;;;;;;;9.93;4.65;;;;;;;17.60;100.00;-18501.00;5007209;28;20045;-80
2023/08/26 06:25:11;;;;;;;8.73;4.63;;;;;;;17.64;100.00;-18501.97;5007425;28;20517;-80
2023/08/26 06:27:36;;;;;;;8.00;3.75;;;;;;;17.67;100.00;-18502.66;5010445;28;20038;-80
2023/08/26 06:30:03;;;;;;;6.55;3.35;;;;;;;17.64;100.00;-18501.84;5028243;28;20531;-80
2023/08/26 06:32:28;;;;;;;5.78;3.30;;;;;;;17.64;100.00;-18501.97;5010905;28;20033;-80
2023/08/26 06:34:54;;;;;;;9.82;3.83;;;;;;;17.64;100.00;-18501.97;5011620;28;20398;-80
2023/08/26 06:37:19;;;;;;;11.27;4.45;;;;;;;17.72;100.00;-18504.16;5011333;28;20049;-80
2023/08/26 06:39:45;;;;;;;9.45;3.92;;;;;;;17.85;100.00;-18507.44;5011296;28;20030;-80
2023/08/26 06:42:11;;;;;;;8.40;4.28;;;;;;;17.95;100.00;-18510.31;5012093;28;20045;-80
2023/08/26 06:44:36;;;;;;;7.68;3.92;;;;;;;18.02;100.00;-18512.22;5011732;28;20034;-80
2023/08/26 06:47:02;;;;;;;11.25;4.05;;;;;;;18.14;100.00;-18515.34;5008133;28;20053;-80
2023/08/26 06:49:27;;;;;;;10.05;3.35;;;;;;;18.25;100.00;-18518.22;5012297;28;20099;-80
2023/08/26 06:51:52;;;;;;;8.85;3.72;;;;;;;18.25;100.00;-18518.34;5011979;28;20050;-80
2023/08/26 06:54:18;;;;;;;7.60;3.22;;;;;;;18.25;100.00;-18518.34;5012561;28;20041;-80
2023/08/26 06:56:43;;;;;;;7.82;3.53;;;;;;;18.23;100.00;-18517.66;5011519;28;20033;-80
2023/08/26 06:59:09;;;;;;;9.50;3.45;;;;;;;18.33;100.00;-18520.25;5012183;28;20045;-80
2023/08/26 07:01:34;;;;;;;9.18;3.42;;;;;;;18.26;100.00;-18518.63;5012495;28;20105;-80
2023/08/26 07:04:07;;;;;;;5.78;3.10;;;;;;;18.28;100.00;-18519.03;5011280;28;20046;-80
2023/08/26 07:06:33;;;;;;;6.82;2.95;;;;;;;18.31;100.00;-18519.72;5012805;28;20445;-79
2023/08/26 07:08:59;;;;;;;6.50;3.35;;;;;;;18.35;100.00;-18520.94;5012075;28;20046;-80
2023/08/26 07:11:24;;;;;;;7.07;3.17;;;;;;;18.40;100.00;-18522.31;5012152;28;20042;-80
2023/08/26 07:13:50;;;;;;;7.15;3.75;;;;;;;18.44;100.00;-18523.25;5010408;28;20048;-80
2023/08/26 07:16:15;;;;;;;8.48;3.10;;;;;;;18.53;100.00;-18525.72;5011504;28;20071;-80
2023/08/26 07:18:41;;;;;;;6.82;3.25;;;;;;;18.63;100.00;-18528.44;5016552;28;20120;-80
2023/08/26 07:21:06;;;;;;;6.18;2.78;;;;;;;18.66;100.00;-18529.25;5011701;28;20484;-80
2023/08/26 07:23:35;;;;;;;10.35;4.10;;;;;;;18.81;100.00;-18533.22;5011225;28;20106;-80
2023/08/26 07:26:01;;;;;;;11.93;3.25;;;;;;;18.85;100.00;-18534.16;5011061;28;20052;-80
2023/08/26 07:28:26;;;;;;;6.97;2.90;;;;;;;18.80;100.00;-18532.81;5011223;28;20424;-80
2023/08/26 07:30:52;;;;;;;8.98;2.80;;;;;;;18.78;100.00;-18532.41;5027239;28;20093;-80
2023/08/26 07:33:18;;;;;;;7.72;2.72;;;;;;;18.78;100.00;-18532.25;5012536;28;20046;-80
2023/08/26 07:35:43;;;;;;;8.75;3.00;;;;;;;18.96;100.00;-18537.16;5010140;28;20041;-80
2023/08/26 07:38:09;;;;;;;5.65;2.83;;;;;;;19.02;100.00;-18538.66;5015349;28;20420;-80
2023/08/26 07:40:34;;;;;;;7.32;3.00;;;;;;;19.09;100.00;-18540.72;5006099;28;20452;-80
2023/08/26 07:43:00;;;;;;;7.10;2.63;;;;;;;19.17;100.00;-18542.88;5021450;28;20108;-80
2023/08/26 07:45:25;;;;;;;7.35;2.47;;;;;;;19.27;100.00;-18545.34;5006587;28;20414;-80
2023/08/26 07:47:51;;;;;;;5.93;2.75;;;;;;;19.37;100.00;-18548.19;5012318;28;20061;-80
2023/08/26 07:50:16;;;;;;;10.15;3.28;;;;;;;19.23;100.00;-18544.25;5010895;28;20042;-80
2023/08/26 07:52:42;;;;;;;11.05;3.42;;;;;;;19.23;100.00;-18544.25;5011244;28;20125;-80
2023/08/26 07:55:08;;;;;;;7.20;3.17;;;;;;;19.32;100.00;-18546.72;5011700;28;20120;-80
2023/08/26 07:57:33;;;;;;;6.25;3.03;;;;;;;19.23;100.00;-18544.38;5010969;28;20065;-80
2023/08/26 07:59:59;;;;;;;9.20;3.08;;;;;;;19.23;100.00;-18544.38;5008833;28;20752;-80
2023/08/26 08:02:24;;;;;;;10.13;3.33;;;;;;;19.38;100.00;-18548.34;5009792;28;20485;-80
2023/08/26 08:04:50;;;;;;;5.75;2.72;;;;;;;19.31;100.00;-18546.44;5007739;28;20029;-80
2023/08/26 08:07:15;;;;;;;6.32;2.97;;;;;;;19.36;100.00;-18547.78;5009709;28;20052;-80
2023/08/26 08:09:40;;;;;;;6.45;2.72;;;;;;;19.29;100.00;-18545.88;5012592;28;20053;-80
2023/08/26 08:12:11;;;;;;;7.13;2.58;;;;;;;19.47;100.00;-18550.66;5011206;28;20054;-80
2023/08/26 08:14:36;;;;;;;7.15;2.55;;;;;;;19.42;100.00;-18549.44;5007379;28;20037;-80
2023/08/26 08:17:03;;;;;;;5.90;2.30;;;;;;;19.54;100.00;-18552.56;5005878;28;20044;-80
2023/08/26 08:19:28;;;;;;;9.18;2.30;;;;;;;19.51;100.00;-18551.88;5007178;28;20065;-80
2023/08/26 08:21:53;;;;;;;5.95;2.38;;;;;;;19.71;100.00;-18557.19;5009516;28;20065;-80
2023/08/26 08:24:19;;;;;;;8.65;2.95;;;;;;;19.80;100.00;-18559.50;5008987;28;20064;-80
2023/08/26 08:26:44;;;;;;;6.10;2.30;;;;;;;19.84;100.00;-18560.59;5009535;28;20042;-80
2023/08/26 08:29:10;;;;;;;6.78;2.50;;;;;;;19.90;100.00;-18562.09;5009735;28;20501;-81
2023/08/26 08:31:36;;;;;;;7.93;2.15;;;;;;;19.77;100.00;-18558.69;5009685;28;20454;-80
2023/08/26 08:34:03;;;;;;;8.48;2.20;;;;;;;19.70;100.00;-18556.94;5008210;28;20037;-80
2023/08/26 08:36:29;;;;;;;5.82;2.58;;;;;;;19.84;100.00;-18560.59;5008998;28;20068;-80
2023/08/26 08:38:54;;;;;;;7.55;2.28;;;;;;;19.96;100.00;-18563.88;5008110;28;20061;-80
2023/08/26 08:41:20;;;;;;;7.30;2.38;;;;;;;20.05;100.00;-18566.31;5015339;28;20128;-80
2023/08/26 08:43:48;;;;;;;6.25;1.92;;;;;;;20.22;100.00;-18570.81;5013157;28;20539;-81
2023/08/26 08:46:15;;;;;;;4.82;1.92;;;;;;;20.33;100.00;-18573.66;5009119;28;20128;-81
2023/08/26 08:48:41;;;;;;;5.13;2.00;;;;;;;20.28;100.00;-18572.44;5009330;28;20042;-80
2023/08/26 08:51:10;;;;;;;14.68;5.03;;;;;;;20.56;100.00;-18579.78;5006137;28;20218;-80
2023/08/26 08:53:44;;;;;;;4.85;1.70;;;;;;;20.76;100.00;-18585.09;5016631;28;20408;-81
2023/08/26 08:56:10;;;;;;;5.43;2.30;;;;;;;20.81;100.00;-18586.47;5004961;28;20144;-80
2023/08/26 08:58:37;;;;;;;5.85;2.15;;;;;;;20.70;100.00;-18583.47;5007622;28;20464;-81
2023/08/26 09:01:04;;;;;;;6.88;2.22;;;;;;;20.88;100.00;-18588.38;5009261;28;20524;-81
2023/08/26 09:03:30;;;;;;;5.75;2.13;;;;;;;21.15;100.00;-18595.44;5008134;28;20041;-81
2023/08/26 09:05:55;;;;;;;4.63;2.15;;;;;;;21.20;100.00;-18596.78;5008650;28;20079;-81
2023/08/26 09:08:24;;;;;;;5.22;2.00;;;;;;;21.18;100.00;-18596.38;5010080;28;20053;-80
2023/08/26 09:10:50;;;;;;;4.93;1.70;;;;;;;20.99;96.89;-18591.09;5009888;28;20689;-80
2023/08/26 09:13:16;;;;;;;8.00;2.20;;;;;;;20.94;100.00;-18590.00;5014588;28;20042;-80
2023/08/26 09:15:41;;;;;;;5.00;1.60;;;;;;;20.90;95.55;-18588.91;5001223;28;20037;-80
2023/08/26 09:18:13;;;;;;;9.05;2.30;;;;;;;21.32;100.00;-18600.06;5014478;28;20088;-81
2023/08/26 09:20:39;;;;;;;4.68;2.17;;;;;;;21.44;97.34;-18603.19;5006214;28;20054;-81
2023/08/26 09:23:05;;;;;;;7.03;2.08;;;;;;;21.35;95.35;-18600.88;5002049;28;20053;-81
2023/08/26 09:25:37;;;;;;;8.05;1.80;;;;;;;21.33;97.04;-18600.34;5024445;28;20044;-81
2023/08/26 09:28:04;;;;;;;3.65;1.83;;;;;;;21.29;91.92;-18599.25;5012801;28;20041;-81
2023/08/26 09:30:29;;;;;;;5.13;1.30;;;;;;;21.16;92.05;-18595.72;5014071;28;20034;-81
2023/08/26 09:32:55;;;;;;;3.88;2.03;;;;;;;21.31;93.87;-18599.78;5010488;28;20042;-81
2023/08/26 09:35:21;;;;;;;4.68;1.52;;;;;;;21.38;90.96;-18601.56;5013848;28;20069;-81
2023/08/26 09:37:48;;;;;;;3.28;1.33;;;;;;;21.28;89.54;-18598.84;5013484;28;20036;-81
2023/08/26 09:40:18;;;;;;;3.33;1.30;;;;;;;21.50;91.14;-18604.69;5009238;28;20053;-81
2023/08/26 09:42:44;;;;;;;5.45;1.75;;;;;;;21.71;87.32;-18610.41;5028690;28;20038;-81
2023/08/26 09:45:13;;;;;;;6.32;1.65;;;;;;;21.67;89.26;-18609.19;5014600;28;20045;-81
2023/08/26 09:47:39;;;;;;;6.18;1.80;;;;;;;21.91;92.71;-18615.56;5008911;28;20386;-81
2023/08/26 09:50:08;;;;;;;3.90;1.60;;;;;;;22.08;87.54;-18620.31;5013420;28;20124;-81
2023/08/26 09:52:45;;;;;;;3.75;1.40;;;;;;;22.01;84.38;-18618.28;5016499;28;20485;-81
2023/08/26 09:55:11;;;;;;;4.32;1.30;;;;;;;21.86;83.25;-18614.34;5016628;28;20043;-81
2023/08/26 09:57:36;;;;;;;4.80;1.40;;;;;;;22.33;86.08;-18626.69;5002209;28;20117;-81
2023/08/26 10:00:03;;;;;;;4.50;1.50;;;;;;;22.49;83.56;-18631.03;5010352;28;20061;-81
2023/08/26 10:02:32;;;;;;;5.60;1.73;;;;;;;22.51;82.21;-18631.59;5017092;28;20034;-81
2023/08/26 10:05:02;;;;;;;7.85;1.60;;;;;;;22.63;79.79;-18634.84;5017538;28;20045;-81
2023/08/26 10:07:31;;;;;;;4.97;1.48;;;;;;;22.82;80.45;-18639.72;5011166;28;20049;-81
2023/08/26 10:10:03;;;;;;;3.13;1.40;;;;;;;22.74;76.06;-18637.69;5028061;28;20046;-81
2023/08/26 10:12:43;;;;;;;2.70;1.08;;;;;;;22.85;75.15;-18640.69;5010901;28;20041;-81
2023/08/26 10:15:12;;;;;;;5.70;1.42;;;;;;;22.99;74.39;-18644.34;5012160;28;20038;-81
2023/08/26 10:17:42;;;;;;;2.47;1.08;;;;;;;22.70;74.26;-18636.59;5012236;28;20072;-81
2023/08/26 10:20:08;;;;;;;3.17;1.40;;;;;;;22.80;74.76;-18639.31;5024589;28;20046;-81
2023/08/26 10:22:36;;;;;;;2.53;1.10;;;;;;;22.97;77.95;-18643.81;5005967;28;20089;-81
2023/08/26 10:25:03;;;;;;;3.33;1.27;;;;;;;23.23;75.49;-18650.72;5010955;28;20081;-81
2023/08/26 10:27:29;;;;;;;3.20;1.20;;;;;;;23.15;76.50;-18648.56;5011133;28;20041;-81
2023/08/26 10:29:55;;;;;;;3.97;1.23;;;;;;;23.02;76.62;-18645.03;5014186;28;20038;-81
2023/08/26 10:32:22;;;;;;;4.05;0.98;;;;;;;23.10;77.60;-18647.34;5011966;28;20038;-81
2023/08/26 10:34:58;;;;;;;3.17;1.15;;;;;;;22.99;75.13;-18644.34;5017964;28;20107;-81
2023/08/26 10:37:29;;;;;;;3.95;1.10;;;;;;;23.09;77.99;-18646.94;5012042;28;20182;-80
2023/08/26 10:39:55;;;;;;;2.72;0.90;;;;;;;23.27;77.26;-18651.81;5019985;28;20046;-81
2023/08/26 10:42:22;;;;;;;2.90;1.40;;;;;;;23.35;74.91;-18653.97;5032301;28;20046;-81
2023/08/26 10:44:57;;;;;;;2.80;1.00;;;;;;;23.36;78.87;-18654.13;5008538;28;20042;-81
2023/08/26 10:47:46;;;;;;;2.92;1.00;;;;;;;23.41;74.22;-18655.47;5012613;28;20049;-81
2023/08/26 10:50:22;;;;;;;3.78;1.05;;;;;;;23.24;75.07;-18650.88;5026277;28;20088;-81
2023/08/26 10:52:59;;;;;;;5.00;1.00;;;;;;;22.98;75.75;-18644.06;5009238;28;20050;-81
2023/08/26 10:55:26;;;;;;;2.78;1.10;;;;;;;22.98;73.57;-18644.22;5012154;28;20049;-81
2023/08/26 10:58:08;;;;;;;2.45;0.80;;;;;;;22.88;74.05;-18641.50;5010018;28;20046;-81
2023/08/26 11:00:34;;;;;;;4.40;1.05;;;;;;;22.90;76.48;-18642.03;5011889;28;20080;-81
2023/08/26 11:03:03;;;;;;;4.20;1.30;;;;;;;23.00;75.13;-18644.63;5010724;28;20045;-81
2023/08/26 11:05:31;;;;;;;2.93;1.10;;;;;;;23.33;76.04;-18653.31;5011025;28;20599;-81
2023/08/26 11:07:57;;;;;;;4.50;1.10;;;;;;;23.46;76.28;-18656.84;5013235;28;20071;-81